• Join FlightAware (Why Join?)
  • Login
  • US Flag 
12:58AM EDT


 

Airport Tracker/Info


-or-


 

Live Flight TrackerFlight Track Log ✈ SWA1535 ✈ 02-May-2013 ✈ KPVD - KMCO

Flight Track Log - Related Links

Times and Time Zones

All times are in EDT time to prevent confusion due to time zone crossing. See the SWA1535 flight status page for this flight to view local times or setup timezone preferences in your user account.

Time Position Orientation Groundspeed Altitude Reporting Facility
EDT Latitude Longitude Course Direction KTS MPH feet Rate Location/Type
01:34PM 41.6811 -71.4311 162° South 193 222 1,600  Level Boston Center
01:35PM 41.6056 -71.3933 159° South 236 272 5,900 3,300 Climbing Boston Center
01:36PM 41.5325 -71.3697 166° South 246 283 9,800 2,880 Climbing Boston Center
01:37PM 41.4636 -71.3458 165° South 268 308 11,700 2,340 Climbing Boston Center
01:38PM 41.3611 -71.3117 166° South 323 372 14,500 2,520 Climbing Boston Center
01:39PM 41.2647 -71.2775 165° South 377 434 16,800 2,340 Climbing Boston Center
01:40PM 41.1478 -71.2439 168° South 401 461 19,200 2,220 Climbing Boston Center
01:41PM 41.0289 -71.2239 173° South 410 472 21,300 2,280 Climbing Boston Center
01:42PM 40.9403 -71.3272 221° Southwest 380 437 23,800 2,340 Climbing Boston Center
01:43PM 40.8811 -71.4767 242° Southwest 397 457 26,000 1,980 Climbing Boston Center
01:44PM 40.8094 -71.6203 237° Southwest 451 519 27,800 1,680 Climbing Boston Center
01:45PM 40.7186 -71.7500 227° Southwest 464 534 29,400 1,500 Climbing Boston Center
01:46PM 40.6256 -71.8878 228° Southwest 491 565 30,900 1,740 Climbing Boston Center
01:47PM 40.5386 -72.0250 230° Southwest 496 571 32,900 1,740 Climbing Boston Center
01:48PM 40.4578 -72.1647 233° Southwest 496 571 34,400 1,560 Climbing Boston Center
01:49PM 40.3686 -72.2958 228° Southwest 491 565 36,100 1,740 Climbing Boston Center
01:50PM 40.2831 -72.4264 229° Southwest 486 559 37,900 900 Climbing Boston Center
01:51PM 40.2019 -72.5597 231° Southwest 473 544 38,000  Climbing Boston Center
01:52PM 40.1183 -72.6925 231° Southwest 478 550 38,000  Level Boston Center
01:53PM 40.0344 -72.8250 230° Southwest 478 550 38,000  Level Boston Center
01:54PM 39.9308 -72.9833 230° Southwest 476 548 38,000  Level Washington Center
01:55PM 39.8461 -73.1133 230° Southwest 476 548 38,000  Level Washington Center
01:56PM 39.7592 -73.2458 230° Southwest 481 554 38,000  Level Washington Center
01:57PM 39.6764 -73.3753 230° Southwest 481 554 38,000  Level Washington Center
01:58PM 39.5889 -73.4967 227° Southwest 475 547 38,000  Level Washington Center
01:59PM 39.5014 -73.6256 229° Southwest 475 547 38,000  Level Washington Center
02:00PM 39.4181 -73.7542 230° Southwest 475 547 38,000  Level Washington Center
02:01PM 39.3303 -73.8825 229° Southwest 475 547 38,000  Level Washington Center
02:02PM 39.2467 -74.0078 229° Southwest 475 547 38,000  Level Washington Center
02:03PM 39.1606 -74.1353 229° Southwest 475 547 38,000  Level Washington Center
02:04PM 39.0747 -74.2600 228° Southwest 475 547 38,000  Level Washington Center
02:05PM 38.9883 -74.3872 229° Southwest 475 547 38,000  Level Washington Center
02:06PM 38.9125 -74.4978 229° Southwest 470 541 38,000  Level Washington Center
02:07PM 38.8281 -74.6217 229° Southwest 470 541 38,000  Level Washington Center
02:08PM 38.7414 -74.7425 227° Southwest 470 541 38,000  Level Washington Center
02:09PM 38.6419 -74.8500 220° Southwest 470 541 38,000  Level Washington Center
02:10PM 38.5406 -74.9572 220° Southwest 470 541 38,000  Level Washington Center
02:11PM 38.4408 -75.0617 219° Southwest 470 541 38,000  Level Washington Center
02:12PM 38.3433 -75.1708 221° Southwest 470 541 38,000  Level Washington Center
02:13PM 38.2311 -75.2797 217° Southwest 470 541 38,000  Level Washington Center
02:14PM 38.1208 -75.3675 212° Southwest 470 541 38,000  Level Washington Center
02:15PM 38.0125 -75.4600 214° Southwest 470 541 38,000  Level Washington Center
02:16PM 37.9144 -75.5364 212° Southwest 465 535 38,000  Level Washington Center
02:17PM 37.8061 -75.6258 213° Southwest 465 535 38,000  Level Washington Center
02:18PM 37.6892 -75.7231 213° Southwest 465 535 38,000  Level Washington Center
02:19PM 37.5911 -75.8042 213° Southwest 465 535 38,000  Level Washington Center
02:20PM 37.4844 -75.8928 213° Southwest 465 535 38,000  Level Washington Center
02:21PM 37.3778 -75.9814 213° Southwest 465 535 38,000  Level Washington Center
02:22PM 37.2692 -76.0669 212° Southwest 465 535 38,000  Level Washington Center
02:23PM 37.1456 -76.1600 211° Southwest 465 535 38,000  Level Washington Center
02:24PM 37.0408 -76.2425 212° Southwest 460 529 38,000  Level Washington Center
02:25PM 36.9361 -76.3272 213° Southwest 460 529 38,000  Level Washington Center
02:26PM 36.8333 -76.4119 213° Southwest 460 529 38,000  Level Washington Center
02:27PM 36.7306 -76.4964 213° Southwest 460 529 38,000  Level Washington Center
02:28PM 36.6361 -76.5731 213° Southwest 460 529 38,000  Level Washington Center
02:29PM 36.5331 -76.6544 212° Southwest 455 524 38,000  Level Washington Center
02:30PM 36.4281 -76.7356 212° Southwest 455 524 38,000  Level Washington Center
02:31PM 36.3250 -76.8167 212° Southwest 455 524 38,000  Level Washington Center
02:32PM 36.2197 -76.9000 213° Southwest 455 524 38,000  Level Washington Center
02:33PM 36.1125 -76.9803 211° Southwest 460 529 38,000  Level Washington Center
02:34PM 36.0072 -77.0658 213° Southwest 460 529 38,000  Level Washington Center
02:35PM 35.9061 -77.1461 213° Southwest 460 529 38,000  Level Washington Center
02:36PM 35.8006 -77.2283 212° Southwest 454 522 38,000  Level Washington Center
02:37PM 35.6953 -77.3081 212° Southwest 454 522 38,000  Level Washington Center
02:38PM 35.5917 -77.3903 213° Southwest 454 522 38,000  Level Washington Center
02:39PM 35.4819 -77.4694 210° Southwest 454 522 38,000  Level Washington Center
02:40PM 35.3783 -77.5511 213° Southwest 454 522 38,000  Level Washington Center
02:41PM 35.2850 -77.6481 220° Southwest 454 522 38,000  Level Washington Center
02:42PM 35.1917 -77.7447 220° Southwest 449 517 38,000  Level Washington Center
02:43PM 35.0981 -77.8386 219° Southwest 444 511 38,000  Level Washington Center
02:44PM 35.0064 -77.9350 221° Southwest 439 505 38,000  Level Washington Center
02:46PM 34.7983 -78.1450 220° Southwest 429 494 38,000  Level Jacksonville Center
02:47PM 34.7183 -78.2378 224° Southwest 434 499 38,000  Level Jacksonville Center
02:48PM 34.6278 -78.3283 219° Southwest 434 499 38,000  Level Jacksonville Center
02:49PM 34.5333 -78.4217 219° Southwest 440 506 38,000  Level Jacksonville Center
02:50PM 34.4425 -78.5144 220° Southwest 440 506 38,000  Level Jacksonville Center
02:51PM 34.3419 -78.6175 220° Southwest 440 506 38,000  Level Jacksonville Center
02:52PM 34.2511 -78.7075 219° Southwest 440 506 38,000  Level Jacksonville Center
02:53PM 34.1581 -78.7997 219° Southwest 440 506 38,000  Level Jacksonville Center
02:54PM 34.0692 -78.8892 220° Southwest 440 506 38,000  Level Jacksonville Center
02:55PM 33.9781 -78.9808 220° Southwest 440 506 38,000  Level Jacksonville Center
02:56PM 33.8869 -79.0700 219° Southwest 440 506 38,000  Level Jacksonville Center
02:57PM 33.7958 -79.1589 219° Southwest 440 506 38,000  Level Jacksonville Center
02:58PM 33.7228 -79.2294 219° Southwest 434 499 38,000  Level Jacksonville Center
02:59PM 33.6172 -79.3336 219° Southwest 426 490 38,000  Level Jacksonville Center
03:00PM 33.5278 -79.4219 219° Southwest 421 484 38,000  Level Jacksonville Center
03:01PM 33.4364 -79.5125 220° Southwest 421 484 38,000  Level Jacksonville Center
03:02PM 33.3450 -79.6031 220° Southwest 421 484 38,000  Level Jacksonville Center
03:03PM 33.2533 -79.6908 219° Southwest 421 484 38,000  Level Jacksonville Center
03:04PM 33.1636 -79.7783 219° Southwest 421 484 38,000  Level Jacksonville Center
03:05PM 33.0717 -79.8658 219° Southwest 427 491 38,000  Level Jacksonville Center
03:06PM 32.9778 -79.9533 218° Southwest 427 491 38,000  Level Jacksonville Center
03:07PM 32.9044 -80.0275 220° Southwest 427 491 38,000  Level Jacksonville Center
03:08PM 32.7978 -80.1100 213° Southwest 432 497 38,000  Level Jacksonville Center
03:09PM 32.6969 -80.1847 212° Southwest 432 497 38,000  Level Jacksonville Center
03:10PM 32.5964 -80.2567 211° Southwest 432 497 38,000  Level Jacksonville Center
03:11PM 32.4997 -80.3308 213° Southwest 422 486 38,000  Level Jacksonville Center
03:12PM 32.4008 -80.4000 211° Southwest 422 486 38,000  Level Jacksonville Center
03:13PM 32.2953 -80.4497 202° Southwest 422 486 38,000  Level Jacksonville Center
03:14PM 32.1856 -80.4967 200° South 417 480 38,000  Level Jacksonville Center
03:15PM 32.0819 -80.5411 200° South 404 465 38,000  Level Jacksonville Center
03:16PM 31.9619 -80.5931 200° South 412 474 38,000  Level Jacksonville Center
03:17PM 31.8625 -80.6372 201° Southwest 418 481 38,000  Level Jacksonville Center
03:18PM 31.7444 -80.6867 200° South 418 481 38,000  Level Jacksonville Center
03:19PM 31.6347 -80.7356 201° Southwest 425 489 38,000  Level Jacksonville Center
03:20PM 31.5350 -80.7769 199° South 420 483 38,000  Level Jacksonville Center
03:21PM 31.4147 -80.8258 199° South 425 489 38,000  Level Jacksonville Center
03:22PM 31.3153 -80.8717 201° Southwest 425 489 38,000  Level Jacksonville Center
03:23PM 31.2075 -80.9178 200° South 424 488 38,000  Level Jacksonville Center
03:24PM 31.0975 -80.9614 199° South 424 488 38,000  Level Jacksonville Center
03:25PM 30.9897 -81.0072 200° South 424 488 38,000 -60 Level Jacksonville Center
03:26PM 30.8839 -81.0528 200° South 424 488 37,900 -600 Descending Jacksonville Center
03:27PM 30.7819 -81.0936 199° South 412 474 36,900 -1,380 Descending Jacksonville Center
03:28PM 30.6803 -81.1342 199° South 398 458 35,200 -1,500 Descending Jacksonville Center
03:29PM 30.5719 -81.1531 189° South 391 450 34,000 -900 Descending Jacksonville Center
03:30PM 30.4572 -81.1503 179° South 403 464 33,400 -1,320 Descending Jacksonville Center
03:31PM 30.3381 -81.1453 178° South 413 475 31,400 -1,980 Descending Jacksonville Center
03:32PM 30.2147 -81.1428 179° South 432 497 29,500 -1,920 Descending Jacksonville Center
03:33PM 30.0875 -81.1378 178° South 450 518 27,600 -1,800 Descending Jacksonville Center
03:34PM 29.9600 -81.1353 179° South 455 524 25,900 -1,500 Descending Jacksonville Center
03:35PM 29.8453 -81.1303 178° South 448 516 24,600 -1,200 Descending Jacksonville Center
03:36PM 29.7344 -81.1275 179° South 422 486 23,600 -1,080 Descending Jacksonville Center
03:37PM 29.6258 -81.1244 179° South 407 468 22,500 -1,080 Descending Jacksonville Center
03:38PM 29.5194 -81.1242 180° South 389 448 21,500 -1,440 Descending Jacksonville Center
03:39PM 29.4150 -81.1189 177° South 382 440 19,700 -1,920 Descending Jacksonville Center
03:40PM 29.3125 -81.1136 177° South 376 433 17,700 -2,100 Descending Jacksonville Center
03:41PM 29.2103 -81.1058 176° South 376 433 15,500 -2,160 Descending Jacksonville Center
03:42PM 29.1119 -81.0981 176° South 371 427 13,400 -1,740 Descending Jacksonville Center
03:43PM 29.0158 -81.0928 177° South 361 415 12,100 -1,200 Descending Jacksonville Center
03:44PM 28.9322 -81.0778 171° South 332 382 11,000 -1,500 Descending Jacksonville Center
03:45PM 28.8547 -81.0672 173° South 305 351 9,200 -2,100 Descending Jacksonville Center
03:46PM 28.8167 -81.0833 200° South 281 323 7,900 -2,100 Descending Orlando TRACON
03:47PM 28.7833 -81.1667 245° Southwest 282 325 6,100 -1,200 Descending Orlando TRACON
03:48PM 28.7667 -81.2500 257° West 251 289 5,600 -1,440 Descending Orlando TRACON
03:49PM 28.7000 -81.2833 204° Southwest 231 266 3,300 -1,320 Descending Orlando TRACON
03:50PM 28.6500 -81.2833 180° South 182 209 3,000 -180 Descending Orlando TRACON
03:51PM 28.6000 -81.2833 180° South 170 196 3,000 -420 Level Orlando TRACON
03:52PM 28.5500 -81.2833 180° South 173 199 2,200 -720 Descending Orlando TRACON
03:53PM 28.5167 -81.3000 204° Southwest 145 167 1,600 -780 Descending Orlando TRACON
03:54PM 28.4667 -81.3000 180° South 137 158 800 -840 Descending Orlando TRACON
03:56PM 28.4294 -81.3090 188° South  Level Estimated
04:03PM 28.4294 -81.3090 188° South  Level Estimated
04:04PM 28.4294 -81.3090 188° South  Level Estimated
04:05PM 28.4294 -81.3090 188° South  Level Estimated
04:06PM 28.4294 -81.3090 188° South  Level Estimated